createdAt,value
2019-01-16T00:00:04.497Z,12.9
2019-01-16T00:00:53.909Z,12.8
2019-01-16T00:01:44.024Z,12.8
2019-01-16T00:02:34.589Z,12.8
2019-01-16T00:03:24.759Z,12.8
2019-01-16T00:04:13.904Z,12.8
2019-01-16T00:05:04.479Z,12.8
2019-01-16T00:05:54.261Z,12.8
2019-01-16T00:06:45.529Z,12.8
2019-01-16T00:07:35.268Z,12.7
2019-01-16T00:08:24.980Z,12.7
2019-01-16T00:09:14.208Z,12.6
2019-01-16T00:10:04.653Z,12.6
2019-01-16T00:10:53.769Z,12.6
2019-01-16T00:11:44.934Z,12.6
2019-01-16T00:12:34.754Z,12.6
2019-01-16T00:13:25.023Z,12.6
2019-01-16T00:14:14.258Z,12.6
2019-01-16T00:15:04.948Z,12.6
2019-01-16T00:15:55.001Z,12.5
2019-01-16T00:16:44.792Z,12.5
2019-01-16T00:17:34.885Z,12.5
2019-01-16T00:18:26.160Z,12.5
2019-01-16T00:19:15.448Z,12.4
2019-01-16T00:20:05.577Z,12.4
2019-01-16T00:20:56.127Z,12.4
2019-01-16T00:21:45.593Z,12.4
2019-01-16T00:22:35.981Z,12.4
2019-01-16T00:23:25.492Z,12.4
2019-01-16T00:24:16.330Z,12.4
2019-01-16T00:25:05.290Z,12.3
2019-01-16T00:25:56.453Z,12.3
2019-01-16T00:26:45.669Z,12.3
2019-01-16T00:27:36.277Z,12.3
2019-01-16T00:28:25.782Z,12.3
2019-01-16T00:29:16.393Z,12.3
2019-01-16T00:30:06.547Z,12.3
2019-01-16T00:30:56.501Z,12.3
2019-01-16T00:31:46.849Z,12.3
2019-01-16T00:32:36.378Z,12.2
2019-01-16T00:33:27.029Z,12.2
2019-01-16T00:34:16.506Z,12.2
2019-01-16T00:35:06.607Z,12.2
2019-01-16T00:35:55.508Z,12.2
2019-01-16T00:36:46.388Z,12.2
2019-01-16T00:37:36.479Z,12.1
2019-01-16T00:38:26.532Z,12.1
2019-01-16T00:39:16.587Z,12.1
2019-01-16T00:40:06.357Z,12.1
2019-01-16T00:40:56.927Z,12.1
2019-01-16T00:41:46.696Z,12.1
2019-01-16T00:42:36.987Z,12.1
2019-01-16T00:43:26.284Z,12.1
2019-01-16T00:44:16.846Z,12.1
2019-01-16T00:45:06.631Z,12.1
2019-01-16T00:45:56.666Z,12.1
2019-01-16T00:46:47.284Z,12
2019-01-16T00:47:37.126Z,12
2019-01-16T00:48:32.551Z,12
2019-01-16T00:49:17.826Z,12
2019-01-16T00:50:06.763Z,12
2019-01-16T00:50:57.628Z,12
2019-01-16T00:51:48.183Z,12
2019-01-16T00:52:37.407Z,11.9
2019-01-16T00:53:27.274Z,11.9
2019-01-16T00:54:17.839Z,11.9
2019-01-16T00:55:08.473Z,11.9
2019-01-16T00:55:58.473Z,11.9
2019-01-16T00:56:47.125Z,11.9
2019-01-16T00:57:38.325Z,11.9
2019-01-16T00:58:27.595Z,11.9
2019-01-16T00:59:19.349Z,11.9
2019-01-16T01:00:07.710Z,11.9
2019-01-16T01:00:58.282Z,11.9
2019-01-16T01:01:48.061Z,11.9
2019-01-16T01:02:38.074Z,11.8
2019-01-16T01:03:28.467Z,11.8
2019-01-16T01:04:18.203Z,11.8
2019-01-16T01:05:08.003Z,11.8
2019-01-16T01:05:57.830Z,11.8
2019-01-16T01:06:48.372Z,11.8
2019-01-16T01:07:38.690Z,11.8
2019-01-16T01:08:28.792Z,11.8
2019-01-16T01:09:19.168Z,11.8
2019-01-16T01:10:09.548Z,11.8
2019-01-16T01:10:58.936Z,11.8
2019-01-16T01:11:48.502Z,11.8
2019-01-16T01:12:38.757Z,11.8
2019-01-16T01:13:28.820Z,11.8
2019-01-16T01:14:19.725Z,11.8
2019-01-16T01:15:09.844Z,11.8
2019-01-16T01:15:59.529Z,11.8
2019-01-16T01:16:49.352Z,11.8
2019-01-16T01:17:39.374Z,11.8
2019-01-16T01:18:44.822Z,11.7
2019-01-16T01:19:19.490Z,11.7
2019-01-16T01:20:09.293Z,11.8
2019-01-16T01:20:59.599Z,11.7
2019-01-16T01:21:49.729Z,11.7
2019-01-16T01:22:39.789Z,11.7
2019-01-16T01:23:28.931Z,11.7
2019-01-16T01:24:19.858Z,11.7
2019-01-16T01:25:10.171Z,11.7
2019-01-16T01:26:00.309Z,11.7
2019-01-16T01:26:50.546Z,11.6
2019-01-16T01:27:40.081Z,11.7
2019-01-16T01:28:30.134Z,11.6
2019-01-16T01:29:20.156Z,11.6
2019-01-16T01:30:10.548Z,11.7
2019-01-16T01:31:00.411Z,11.6
2019-01-16T01:31:50.353Z,11.6
2019-01-16T01:32:40.658Z,11.6
2019-01-16T01:33:30.751Z,11.6
2019-01-16T01:34:22.433Z,11.6
2019-01-16T01:35:10.588Z,11.6
2019-01-16T01:36:00.900Z,11.6
2019-01-16T01:36:50.390Z,11.6
2019-01-16T01:37:41.299Z,11.6
2019-01-16T01:38:31.628Z,11.6
2019-01-16T01:39:20.551Z,11.6
2019-01-16T01:40:11.450Z,11.6
2019-01-16T01:41:00.395Z,11.6
2019-01-16T01:41:50.752Z,11.6
2019-01-16T01:42:41.074Z,11.6
2019-01-16T01:43:30.311Z,11.6
2019-01-16T01:44:20.972Z,11.6
2019-01-16T01:45:11.021Z,11.6
2019-01-16T01:46:01.877Z,11.6
2019-01-16T01:46:51.082Z,11.6
2019-01-16T01:47:40.657Z,11.6
2019-01-16T01:48:31.477Z,11.6
2019-01-16T01:49:22.157Z,11.6
2019-01-16T01:50:11.652Z,11.6
2019-01-16T01:51:01.137Z,11.5
2019-01-16T01:51:51.469Z,11.5
2019-01-16T01:52:41.192Z,11.6
2019-01-16T01:53:32.364Z,11.5
2019-01-16T01:54:22.412Z,11.5
2019-01-16T01:55:12.220Z,11.5
2019-01-16T01:56:02.254Z,11.5
2019-01-16T01:56:52.047Z,11.5
2019-01-16T01:57:41.274Z,11.5
2019-01-16T01:58:31.632Z,11.6
2019-01-16T01:59:21.954Z,11.5
2019-01-16T02:00:14.359Z,11.5
2019-01-16T02:01:02.338Z,11.5
2019-01-16T02:01:51.815Z,11.5
2019-01-16T02:02:42.499Z,11.5
2019-01-16T02:03:32.773Z,11.5
2019-01-16T02:04:22.004Z,11.5
2019-01-16T02:05:11.529Z,11.5
2019-01-16T02:06:02.386Z,11.4
2019-01-16T02:06:53.421Z,11.5
2019-01-16T02:07:43.087Z,11.4
2019-01-16T02:08:33.088Z,11.4
2019-01-16T02:09:23.146Z,11.4
2019-01-16T02:10:12.916Z,11.4
2019-01-16T02:11:02.503Z,11.4
2019-01-16T02:11:52.203Z,11.4
2019-01-16T02:12:43.432Z,11.4
2019-01-16T02:13:33.469Z,11.4
2019-01-16T02:14:22.735Z,11.4
2019-01-16T02:15:12.448Z,11.4
2019-01-16T02:16:03.354Z,11.4
2019-01-16T02:16:52.826Z,11.4
2019-01-16T02:17:42.940Z,11.4
2019-01-16T02:18:32.465Z,11.4
2019-01-16T02:19:23.937Z,11.4
2019-01-16T02:20:13.961Z,11.4
2019-01-16T02:21:03.456Z,11.4
2019-01-16T02:21:52.970Z,11.4
2019-01-16T02:22:43.015Z,11.4
2019-01-16T02:23:32.826Z,11.4
2019-01-16T02:24:23.142Z,11.4
2019-01-16T02:25:13.272Z,11.4
2019-01-16T02:26:03.327Z,11.4
2019-01-16T02:26:53.380Z,11.4
2019-01-16T02:27:44.978Z,11.4
2019-01-16T02:28:33.650Z,11.4
2019-01-16T02:29:24.804Z,11.4
2019-01-16T02:30:13.890Z,11.4
2019-01-16T02:31:04.699Z,11.4
2019-01-16T02:31:54.437Z,11.4
2019-01-16T02:32:45.091Z,11.4
2019-01-16T02:33:34.057Z,11.4
2019-01-16T02:34:24.894Z,11.4
2019-01-16T02:35:14.661Z,11.4
2019-01-16T02:36:04.990Z,11.4
2019-01-16T02:36:55.447Z,11.4
2019-01-16T02:37:44.683Z,11.4
2019-01-16T02:38:34.642Z,11.4
2019-01-16T02:39:25.552Z,11.4
2019-01-16T02:40:14.525Z,11.4
2019-01-16T02:41:04.035Z,11.4
2019-01-16T02:41:54.131Z,11.4
2019-01-16T02:42:44.708Z,11.4
2019-01-16T02:43:35.487Z,11.4
2019-01-16T02:44:25.055Z,11.4
2019-01-16T02:45:15.342Z,11.4
2019-01-16T02:46:04.956Z,11.4
2019-01-16T02:46:54.752Z,11.4
2019-01-16T02:47:44.968Z,11.4
2019-01-16T02:48:34.652Z,11.4
2019-01-16T02:49:24.946Z,11.4
2019-01-16T02:50:15.996Z,11.4
2019-01-16T02:51:05.795Z,11.4
2019-01-16T02:51:55.298Z,11.4
2019-01-16T02:52:46.417Z,11.3
2019-01-16T02:53:34.579Z,11.4
2019-01-16T02:54:26.363Z,11.4
2019-01-16T02:55:15.531Z,11.4
2019-01-16T02:56:05.618Z,11.3
2019-01-16T02:56:55.688Z,11.3
2019-01-16T02:57:45.750Z,11.3
2019-01-16T02:58:36.328Z,11.3
2019-01-16T02:59:26.049Z,11.3
2019-01-16T03:00:16.098Z,11.3
2019-01-16T03:01:06.678Z,11.4
2019-01-16T03:01:56.844Z,11.3
2019-01-16T03:02:46.838Z,11.3
2019-01-16T03:03:36.033Z,11.3
2019-01-16T03:04:26.942Z,11.3
2019-01-16T03:05:16.357Z,11.3
2019-01-16T03:08:50.276Z,11.3
2019-01-16T03:09:40.262Z,11.3
2019-01-16T03:10:30.315Z,11.3
2019-01-16T03:11:20.858Z,11.3
2019-01-16T03:12:11.047Z,11.3
2019-01-16T03:13:00.714Z,11.3
2019-01-16T03:13:50.266Z,11.3
2019-01-16T03:14:41.242Z,11.3
2019-01-16T03:15:31.159Z,11.3
2019-01-16T03:16:20.659Z,11.3
2019-01-16T03:17:11.028Z,11.3
2019-01-16T03:18:00.786Z,11.3
2019-01-16T03:18:51.369Z,11.3
2019-01-16T03:19:41.009Z,11.3
2019-01-16T03:20:31.304Z,11.3
2019-01-16T03:21:21.860Z,11.3
2019-01-16T03:22:11.124Z,11.3
2019-01-16T03:23:01.956Z,11.3
2019-01-16T03:23:51.211Z,11.3
2019-01-16T03:24:41.324Z,11.3
2019-01-16T03:25:31.567Z,11.3
2019-01-16T03:26:21.719Z,11.3
2019-01-16T03:27:11.683Z,11.3
2019-01-16T03:28:02.286Z,11.3
2019-01-16T03:28:52.061Z,11.3
2019-01-16T03:29:41.561Z,11.3
2019-01-16T03:30:32.583Z,11.3
2019-01-16T03:31:22.343Z,11.3
2019-01-16T03:32:12.941Z,11.3
2019-01-16T03:33:02.432Z,11.3
2019-01-16T03:33:51.264Z,11.3
2019-01-16T03:34:42.028Z,11.3
2019-01-16T03:35:32.523Z,11.3
2019-01-16T03:36:21.355Z,11.3
2019-01-16T03:37:12.068Z,11.3
2019-01-16T03:38:02.953Z,11.3
2019-01-16T03:38:52.835Z,11.3
2019-01-16T03:39:41.933Z,11.3
2019-01-16T03:40:32.871Z,11.3
2019-01-16T03:41:22.638Z,11.3
2019-01-16T03:42:12.482Z,11.3
2019-01-16T03:43:02.758Z,11.3
2019-01-16T03:43:52.509Z,11.3
2019-01-16T03:44:42.410Z,11.3
2019-01-16T03:45:33.545Z,11.3
2019-01-16T03:46:23.239Z,11.3
2019-01-16T03:47:13.075Z,11.3
2019-01-16T03:48:03.134Z,11.3
2019-01-16T03:48:53.361Z,11.3
2019-01-16T03:49:43.536Z,11.3
2019-01-16T03:50:33.267Z,11.3
2019-01-16T03:51:23.321Z,11.3
2019-01-16T03:52:13.983Z,11.3
2019-01-16T03:53:03.436Z,11.3
2019-01-16T03:53:52.875Z,11.3
2019-01-16T03:54:43.863Z,11.3
2019-01-16T03:55:33.435Z,11.3
2019-01-16T03:56:23.082Z,11.3
2019-01-16T03:57:13.427Z,11.3
2019-01-16T03:58:04.304Z,11.3
2019-01-16T03:58:53.509Z,11.3
2019-01-16T03:59:43.949Z,11.3
2019-01-16T04:00:34.454Z,11.3
2019-01-16T04:01:24.027Z,11.3
2019-01-16T04:02:14.574Z,11.3
2019-01-16T04:03:04.378Z,11.3
2019-01-16T04:03:53.584Z,11.3
2019-01-16T04:04:44.263Z,11.3
2019-01-16T04:05:34.821Z,11.3
2019-01-16T04:06:24.864Z,11.3
2019-01-16T04:07:14.339Z,11.3
2019-01-16T04:08:04.154Z,11.3
2019-01-16T04:08:54.221Z,11.3
2019-01-16T04:09:44.831Z,11.3
2019-01-16T04:10:34.603Z,11.3
2019-01-16T04:11:24.945Z,11.3
2019-01-16T04:12:14.309Z,11.3
2019-01-16T04:13:05.029Z,11.3
2019-01-16T04:13:54.530Z,11.3
2019-01-16T04:14:44.873Z,11.3
2019-01-16T04:15:35.474Z,11.3
2019-01-16T04:16:25.400Z,11.3
2019-01-16T04:17:14.335Z,11.3
2019-01-16T04:18:04.894Z,11.3
2019-01-16T04:18:54.975Z,11.3
2019-01-16T04:19:45.504Z,11.3
2019-01-16T04:20:35.612Z,11.3
2019-01-16T04:21:25.438Z,11.3
2019-01-16T04:22:15.238Z,11.3
2019-01-16T04:23:05.320Z,11.3
2019-01-16T04:23:55.334Z,11.3
2019-01-16T04:24:45.100Z,11.3
2019-01-16T04:25:35.574Z,11.3
2019-01-16T04:26:26.030Z,11.3
2019-01-16T04:27:15.637Z,11.3
2019-01-16T04:28:05.760Z,11.3
2019-01-16T04:28:55.363Z,11.3
2019-01-16T04:29:45.920Z,11.3
2019-01-16T04:30:34.980Z,11.3
2019-01-16T04:31:26.040Z,11.3
2019-01-16T04:32:15.846Z,11.3
2019-01-16T04:33:06.222Z,11.3
2019-01-16T04:33:55.748Z,11.3
2019-01-16T04:34:46.035Z,11.3
2019-01-16T04:35:35.867Z,11.3
2019-01-16T04:36:26.405Z,11.3
2019-01-16T04:37:16.417Z,11.3
2019-01-16T04:38:06.053Z,11.3
2019-01-16T04:38:56.567Z,11.3
2019-01-16T04:39:46.621Z,11.3
2019-01-16T04:40:35.864Z,11.3
2019-01-16T04:41:26.509Z,11.3
2019-01-16T04:42:16.900Z,11.3
2019-01-16T04:43:06.382Z,11.3
2019-01-16T04:43:55.782Z,11.3
2019-01-16T04:44:46.754Z,11.3
2019-01-16T04:45:36.466Z,11.3
2019-01-16T04:46:27.084Z,11.3
2019-01-16T04:47:17.109Z,11.3
2019-01-16T04:48:06.406Z,11.3
2019-01-16T04:48:57.020Z,11.3
2019-01-16T04:49:46.817Z,11.3
2019-01-16T04:50:37.074Z,11.3
2019-01-16T04:51:27.181Z,11.3
2019-01-16T04:52:17.186Z,11.3
2019-01-16T04:53:07.498Z,11.3
2019-01-16T04:53:57.371Z,11.3
2019-01-16T04:54:47.103Z,11.3
2019-01-16T04:55:37.381Z,11.3
2019-01-16T04:56:26.967Z,11.3
2019-01-16T04:57:16.967Z,11.3
2019-01-16T04:58:07.594Z,11.3
2019-01-16T04:58:57.954Z,11.3
2019-01-16T04:59:47.128Z,11.3
2019-01-16T05:00:37.830Z,11.3
2019-01-16T05:01:27.811Z,11.3
2019-01-16T05:02:18.163Z,11.3
2019-01-16T05:03:07.845Z,11.3
2019-01-16T05:03:57.950Z,11.3
2019-01-16T05:04:48.297Z,11.3
2019-01-16T05:05:37.244Z,11.3
2019-01-16T05:06:28.142Z,11.3
2019-01-16T05:07:18.228Z,11.3
2019-01-16T05:08:07.710Z,11.3
2019-01-16T05:08:59.110Z,11.3
2019-01-16T05:09:48.568Z,11.3
2019-01-16T05:10:38.350Z,11.3
2019-01-16T05:11:27.425Z,11.3
2019-01-16T05:12:18.548Z,11.3
2019-01-16T05:13:09.328Z,11.3
2019-01-16T05:13:59.117Z,11.3
2019-01-16T05:14:48.924Z,11.3
2019-01-16T05:15:39.227Z,11.3
2019-01-16T05:16:29.013Z,11.3
2019-01-16T05:17:18.799Z,11.3
2019-01-16T05:18:08.637Z,11.3
2019-01-16T05:18:59.219Z,11.3
2019-01-16T05:19:49.799Z,11.3
2019-01-16T05:20:38.815Z,11.3
2019-01-16T05:21:28.617Z,11.3
2019-01-16T05:22:18.930Z,11.3
2019-01-16T05:23:09.265Z,11.3
2019-01-16T05:23:59.598Z,11.3
2019-01-16T05:24:49.851Z,11.3
2019-01-16T05:25:39.329Z,11.3
2019-01-16T05:26:32.226Z,11.3
2019-01-16T05:27:19.550Z,11.3
2019-01-16T05:28:10.081Z,11.3
2019-01-16T05:28:59.386Z,11.3
2019-01-16T05:29:50.341Z,11.3
2019-01-16T05:30:39.936Z,11.3
2019-01-16T05:31:30.044Z,11.3
2019-01-16T05:32:20.626Z,11.3
2019-01-16T05:33:10.129Z,11.3
2019-01-16T05:34:00.208Z,11.3
2019-01-16T05:34:50.773Z,11.3
2019-01-16T05:35:40.851Z,11.3
2019-01-16T05:36:30.358Z,11.3
2019-01-16T05:37:20.418Z,11.3
2019-01-16T05:38:10.776Z,11.3
2019-01-16T05:39:00.791Z,11.3
2019-01-16T05:39:50.318Z,11.3
2019-01-16T05:40:40.910Z,11.3
2019-01-16T05:41:30.708Z,11.3
2019-01-16T05:42:21.004Z,11.3
2019-01-16T05:43:10.535Z,11.3
2019-01-16T05:44:01.452Z,11.3
2019-01-16T05:44:51.500Z,11.3
2019-01-16T05:45:40.938Z,11.3
2019-01-16T05:46:31.235Z,11.3
2019-01-16T05:47:21.051Z,11.3
2019-01-16T05:48:11.457Z,11.3
2019-01-16T05:49:00.923Z,11.3
2019-01-16T05:49:55.839Z,11.3
2019-01-16T05:50:40.800Z,11.3
2019-01-16T05:51:31.408Z,11.3
2019-01-16T05:52:21.375Z,11.3
2019-01-16T05:53:11.257Z,11.3
2019-01-16T05:54:01.577Z,11.3
2019-01-16T05:54:50.841Z,11.3
2019-01-16T05:55:40.592Z,11.3
2019-01-16T05:56:31.159Z,11.3
2019-01-16T05:57:21.783Z,11.3
2019-01-16T05:58:12.091Z,11.3
2019-01-16T05:59:01.847Z,11.3
2019-01-16T05:59:51.884Z,11.3
2019-01-16T06:00:42.314Z,11.3
2019-01-16T06:01:32.293Z,11.3
2019-01-16T06:02:22.718Z,11.3
2019-01-16T06:03:12.632Z,11.3
2019-01-16T06:04:02.709Z,11.3
2019-01-16T06:06:50.307Z,11.3
2019-01-16T06:07:39.823Z,11.3
2019-01-16T06:08:30.993Z,11.3
2019-01-16T06:09:22.510Z,11.3
2019-01-16T06:10:11.137Z,11.3
2019-01-16T06:11:01.214Z,11.3
2019-01-16T06:11:51.154Z,11.3
2019-01-16T06:12:40.683Z,11.3
2019-01-16T06:13:30.475Z,11.3
2019-01-16T06:14:21.132Z,11.3
2019-01-16T06:15:11.118Z,11.3
2019-01-16T06:16:01.197Z,11.3
2019-01-16T06:16:51.232Z,11.3
2019-01-16T06:17:40.972Z,11.3
2019-01-16T06:18:31.170Z,15.9
2019-01-16T06:19:20.587Z,20.7
2019-01-16T06:20:11.445Z,22.7
2019-01-16T06:21:01.499Z,17.1
2019-01-16T06:21:51.538Z,15.3
2019-01-16T06:22:41.604Z,15.7
2019-01-16T06:23:31.804Z,15.8
2019-01-16T06:24:21.747Z,15.8
2019-01-16T06:25:11.920Z,15.8
2019-01-16T06:26:01.864Z,15.7
2019-01-16T06:26:51.382Z,15.6
2019-01-16T06:27:42.287Z,15.6
2019-01-16T06:28:32.379Z,15.5
2019-01-16T06:29:21.789Z,15.4
2019-01-16T06:30:12.380Z,15.4
2019-01-16T06:31:01.654Z,15.4
2019-01-16T06:31:51.209Z,15.3
2019-01-16T06:32:41.789Z,15.3
2019-01-16T06:33:32.199Z,15.2
2019-01-16T06:34:22.521Z,15.2
2019-01-16T06:35:12.758Z,15.1
2019-01-16T06:36:02.556Z,15.1
2019-01-16T06:36:51.864Z,15
2019-01-16T06:37:42.863Z,15
2019-01-16T06:38:32.918Z,14.9
2019-01-16T06:39:22.758Z,14.9
2019-01-16T06:40:12.775Z,14.9
2019-01-16T06:41:02.538Z,14.8
2019-01-16T06:41:52.423Z,14.8
2019-01-16T06:42:42.964Z,14.8
2019-01-16T06:43:32.977Z,14.7
2019-01-16T06:44:22.862Z,14.6
2019-01-16T06:45:12.278Z,14.6
2019-01-16T06:46:02.862Z,14.6
2019-01-16T06:46:53.543Z,14.5
2019-01-16T06:47:42.981Z,14.5
2019-01-16T06:48:32.825Z,14.4
2019-01-16T06:49:22.883Z,14.4
2019-01-16T06:50:21.301Z,14.4
2019-01-16T06:51:03.200Z,14.3
2019-01-16T06:51:53.817Z,14.3
2019-01-16T06:52:43.377Z,14.3
2019-01-16T06:53:33.391Z,14.3
2019-01-16T06:54:24.007Z,14.2
2019-01-16T06:55:13.559Z,14.1
2019-01-16T06:56:03.837Z,14.1
2019-01-16T06:56:53.935Z,14.1
2019-01-16T06:57:43.725Z,14.1
2019-01-16T06:58:33.730Z,14
2019-01-16T06:59:23.022Z,14
2019-01-16T07:00:14.410Z,14
2019-01-16T07:01:03.950Z,13.9
2019-01-16T07:01:54.002Z,13.9
2019-01-16T07:02:44.251Z,13.8
2019-01-16T07:03:34.132Z,13.8
2019-01-16T07:04:24.096Z,15.1
2019-01-16T07:06:50.166Z,24.8
2019-01-16T07:07:39.994Z,25.7
2019-01-16T07:08:29.577Z,26.2
2019-01-16T07:09:20.659Z,26.5
2019-01-16T07:10:10.213Z,26.7
2019-01-16T07:11:00.829Z,26.9
2019-01-16T07:11:50.341Z,27.1
2019-01-16T07:12:40.361Z,27.4
2019-01-16T07:13:31.191Z,27.5
2019-01-16T07:14:21.296Z,27.7
2019-01-16T07:16:01.095Z,27.9
2019-01-16T07:16:50.856Z,28.1
2019-01-16T07:17:41.471Z,28.2
2019-01-16T07:18:30.993Z,28.3
2019-01-16T07:19:21.601Z,28.4
2019-01-16T07:20:19.093Z,28.4
2019-01-16T07:21:01.136Z,28.3
2019-01-16T07:21:51.278Z,28.1
2019-01-16T07:22:41.538Z,28
2019-01-16T07:23:31.610Z,27.9
2019-01-16T07:24:21.448Z,27.7
2019-01-16T07:25:11.438Z,27.6
2019-01-16T07:26:02.046Z,27.4
2019-01-16T07:26:51.270Z,27.3
2019-01-16T07:27:42.178Z,27.1
2019-01-16T07:28:31.730Z,26.9
2019-01-16T07:29:21.523Z,26.5
2019-01-16T07:30:11.576Z,25.8
2019-01-16T07:31:01.338Z,25.4
2019-01-16T07:31:51.758Z,25.5
2019-01-16T07:32:41.522Z,25.6
2019-01-16T07:33:32.120Z,25.9
2019-01-16T07:34:21.840Z,26.3
2019-01-16T07:35:12.217Z,26.4
2019-01-16T07:36:01.970Z,26.6
2019-01-16T07:36:51.722Z,26.8
2019-01-16T07:37:42.059Z,26.9
2019-01-16T07:38:33.923Z,27.1
2019-01-16T07:39:22.940Z,27.3
2019-01-16T07:40:12.712Z,27.4
2019-01-16T07:41:02.568Z,27.6
2019-01-16T07:41:52.915Z,27.7
2019-01-16T07:43:33.080Z,28
2019-01-16T07:44:22.489Z,28.1
2019-01-16T07:45:12.857Z,28.2
2019-01-16T07:46:03.087Z,28.3
2019-01-16T07:46:54.242Z,28.4
2019-01-16T07:47:43.225Z,28.4
2019-01-16T07:48:33.762Z,28.3
2019-01-16T07:49:23.584Z,28.2
2019-01-16T07:50:21.176Z,28.1
2019-01-16T07:51:03.441Z,27.9
2019-01-16T07:51:53.554Z,27.8
2019-01-16T07:52:42.596Z,27.6
2019-01-16T07:53:33.899Z,27.4
2019-01-16T07:54:23.131Z,27.3
2019-01-16T07:55:14.024Z,27.1
2019-01-16T07:56:03.521Z,27
2019-01-16T07:56:53.621Z,26.9
2019-01-16T07:57:43.890Z,26.2
2019-01-16T07:58:33.963Z,25.6
2019-01-16T07:59:30.856Z,25.4
2019-01-16T08:00:14.089Z,25.6
2019-01-16T08:01:04.169Z,25.8
2019-01-16T08:01:54.198Z,26.1
2019-01-16T08:02:44.271Z,26.4
2019-01-16T08:03:34.290Z,26.5
2019-01-16T08:04:24.137Z,26.7
2019-01-16T08:05:14.401Z,26.8
2019-01-16T08:06:04.878Z,26.9
2019-01-16T08:06:54.253Z,27.1
2019-01-16T08:07:44.870Z,27.3
2019-01-16T08:08:34.639Z,27.5
2019-01-16T08:09:24.768Z,27.6
2019-01-16T08:10:13.923Z,27.8
2019-01-16T08:11:04.003Z,27.9
2019-01-16T08:11:54.657Z,28
2019-01-16T08:12:45.225Z,28.1
2019-01-16T08:13:35.325Z,28.2
2019-01-16T08:14:25.028Z,28.3
2019-01-16T08:15:15.105Z,28.4
2019-01-16T08:16:04.862Z,28.4
2019-01-16T08:16:54.722Z,28.3
2019-01-16T08:17:45.614Z,28.1
2019-01-16T08:18:35.625Z,27.9
2019-01-16T08:20:15.207Z,27.6
2019-01-16T08:21:05.509Z,27.5
2019-01-16T08:21:54.456Z,27.4
2019-01-16T08:22:45.894Z,27.3
2019-01-16T08:23:35.652Z,27.1
2019-01-16T08:24:25.719Z,26.9
2019-01-16T08:25:15.824Z,26.8
2019-01-16T08:26:05.847Z,26
2019-01-16T08:26:55.674Z,26
2019-01-16T08:27:45.932Z,26.1
2019-01-16T08:28:36.018Z,26.5
2019-01-16T08:29:25.776Z,26.4
2019-01-16T08:30:16.135Z,26.6
2019-01-16T08:31:05.896Z,26.8
2019-01-16T08:31:55.957Z,26.9
2019-01-16T08:32:46.069Z,27.1
2019-01-16T08:33:35.766Z,27.3
2019-01-16T08:34:26.098Z,27.4
2019-01-16T08:35:16.726Z,27.6
2019-01-16T08:36:06.226Z,27.7
2019-01-16T08:37:46.618Z,27.9
2019-01-16T08:38:36.486Z,28.1
2019-01-16T08:39:26.521Z,28.2
2019-01-16T08:40:16.908Z,28.3
2019-01-16T08:41:06.563Z,28.4
2019-01-16T08:41:56.635Z,28.4
2019-01-16T08:42:47.231Z,28.1
2019-01-16T08:43:37.291Z,27.3
2019-01-16T08:44:27.372Z,26.8
2019-01-16T08:45:17.153Z,26.7
2019-01-16T08:46:06.633Z,26.8
2019-01-16T08:46:57.505Z,26.9
2019-01-16T08:47:47.081Z,27.1
2019-01-16T08:48:37.130Z,27.3
2019-01-16T08:49:27.463Z,27.4
2019-01-16T08:50:17.200Z,27.6
2019-01-16T08:51:07.598Z,27.7
2019-01-16T08:51:57.355Z,27.9
2019-01-16T08:52:47.613Z,28
2019-01-16T08:53:39.558Z,28.1
2019-01-16T08:54:27.824Z,28.3
2019-01-16T08:55:18.070Z,28.4
2019-01-16T08:56:07.860Z,28.4
2019-01-16T08:56:58.185Z,28.3
2019-01-16T08:57:48.257Z,28.1
2019-01-16T08:58:38.413Z,28
2019-01-16T08:59:27.825Z,27.9
2019-01-16T09:00:18.430Z,27.7
2019-01-16T09:01:07.344Z,27.6
2019-01-16T09:01:58.247Z,27.4
2019-01-16T09:02:48.307Z,27.3
2019-01-16T09:03:38.664Z,27.1
2019-01-16T09:04:28.745Z,27
2019-01-16T09:05:18.231Z,26.2
2019-01-16T09:06:08.027Z,25.6
2019-01-16T09:06:58.925Z,25.6
2019-01-16T09:07:48.907Z,25.7
2019-01-16T09:08:37.854Z,25.9
2019-01-16T09:09:27.744Z,26.2
2019-01-16T09:10:18.316Z,26.3
2019-01-16T09:11:08.877Z,26.5
2019-01-16T09:11:58.715Z,26.7
2019-01-16T09:12:47.954Z,26.9
2019-01-16T09:13:39.329Z,27.1
2019-01-16T09:14:28.869Z,27.3
2019-01-16T09:15:18.919Z,27.4
2019-01-16T09:16:08.668Z,27.6
2019-01-16T09:17:51.149Z,27.9
2019-01-16T09:18:39.413Z,28.1
2019-01-16T09:19:29.233Z,28.2
2019-01-16T09:20:19.764Z,28.3
2019-01-16T09:21:09.272Z,28.4
2019-01-16T09:21:59.885Z,28.4
2019-01-16T09:22:51.801Z,28.3
2019-01-16T09:23:39.446Z,28.2
2019-01-16T09:24:28.960Z,28.1
2019-01-16T09:25:19.643Z,27.9
2019-01-16T09:26:09.883Z,27.8
2019-01-16T09:26:59.643Z,27.6
2019-01-16T09:27:49.990Z,27.4
2019-01-16T09:28:40.028Z,27.3
2019-01-16T09:29:30.118Z,27.2
2019-01-16T09:30:19.653Z,27
2019-01-16T09:31:09.708Z,26.4
2019-01-16T09:31:59.995Z,25.8
2019-01-16T09:32:49.570Z,25.4
2019-01-16T09:33:39.893Z,25.6
2019-01-16T09:34:30.752Z,25.8
2019-01-16T09:35:20.295Z,26.1
2019-01-16T09:36:10.557Z,26.1
2019-01-16T09:37:00.705Z,26.4
2019-01-16T09:37:50.682Z,26.6
2019-01-16T09:38:40.182Z,26.8
2019-01-16T09:39:30.820Z,26.9
2019-01-16T09:40:21.128Z,27.2
2019-01-16T09:41:10.195Z,27.4
2019-01-16T09:42:00.725Z,27.6
2019-01-16T09:42:50.307Z,27.7
2019-01-16T09:43:41.077Z,27.9
2019-01-16T09:44:30.430Z,28
2019-01-16T09:45:21.057Z,28.1
2019-01-16T09:46:09.994Z,28.3
2019-01-16T09:47:00.589Z,28.4
2019-01-16T09:47:51.190Z,28.4
2019-01-16T09:48:39.830Z,28.3
2019-01-16T09:49:30.424Z,28.1
2019-01-16T09:50:21.029Z,28
2019-01-16T09:52:01.231Z,27.7
2019-01-16T09:52:51.235Z,27.5
2019-01-16T09:53:41.549Z,27.4
2019-01-16T09:54:31.115Z,27.3
2019-01-16T09:55:21.369Z,27.1
2019-01-16T09:56:11.800Z,26.9
2019-01-16T09:57:01.489Z,26.8
2019-01-16T09:57:51.596Z,26.7
2019-01-16T09:58:41.596Z,26.6
2019-01-16T09:59:31.432Z,26.1
2019-01-16T10:00:21.219Z,25.5
2019-01-16T10:01:11.511Z,25.6
2019-01-16T10:02:01.538Z,25.9
2019-01-16T10:02:51.596Z,26
2019-01-16T10:03:42.421Z,26.2
2019-01-16T10:04:31.706Z,26.4
2019-01-16T10:05:22.321Z,26.6
2019-01-16T10:07:49.162Z,27.3
2019-01-16T10:08:39.808Z,27.5
2019-01-16T10:09:29.795Z,27.7
2019-01-16T10:10:20.223Z,27.9
2019-01-16T10:11:09.930Z,28
2019-01-16T10:12:00.539Z,28.2
2019-01-16T10:12:50.605Z,28.3
2019-01-16T10:13:40.097Z,28.4
2019-01-16T10:14:30.777Z,28.4
2019-01-16T10:15:20.278Z,28.3
2019-01-16T10:16:10.279Z,28.2
2019-01-16T10:17:01.150Z,28
2019-01-16T10:17:50.117Z,27.9
2019-01-16T10:18:39.934Z,27.8
2019-01-16T10:19:30.813Z,27.6
2019-01-16T10:20:20.562Z,27.4
2019-01-16T10:21:11.439Z,27.3
2019-01-16T10:22:00.368Z,27.1
2019-01-16T10:22:51.102Z,27
2019-01-16T10:23:41.034Z,26.9
2019-01-16T10:24:30.914Z,26.8
2019-01-16T10:25:21.465Z,26.6
2019-01-16T10:26:11.502Z,25.8
2019-01-16T10:27:01.059Z,25.7
2019-01-16T10:27:51.117Z,25.9
2019-01-16T10:28:40.640Z,26.4
2019-01-16T10:29:30.966Z,26.4
2019-01-16T10:30:20.119Z,26.6
2019-01-16T10:31:10.983Z,26.8
2019-01-16T10:32:00.661Z,26.9
2019-01-16T10:32:51.214Z,27.1
2019-01-16T10:33:41.744Z,27.4
2019-01-16T10:34:32.071Z,27.6
2019-01-16T10:35:21.926Z,27.8
2019-01-16T10:36:11.670Z,28.1
2019-01-16T10:37:02.521Z,28.1
2019-01-16T10:37:52.027Z,27.4
2019-01-16T10:38:42.063Z,26.7
2019-01-16T10:39:32.460Z,26.4
2019-01-16T10:40:22.796Z,26.6
2019-01-16T10:41:11.980Z,26.9
2019-01-16T10:42:02.015Z,26.9
2019-01-16T10:42:51.780Z,27.1
2019-01-16T10:43:42.179Z,27.3
2019-01-16T10:44:31.955Z,27.4
2019-01-16T10:45:24.105Z,27.6
2019-01-16T10:46:11.561Z,27.9
2019-01-16T10:47:02.075Z,28.1
2019-01-16T10:47:52.803Z,28.3
2019-01-16T10:48:49.503Z,28.4
2019-01-16T10:49:33.065Z,28.4
2019-01-16T10:50:22.115Z,28.3
2019-01-16T10:51:12.431Z,28.2
2019-01-16T10:52:02.543Z,28.1
2019-01-16T10:52:52.832Z,27.9
2019-01-16T10:53:42.818Z,27.8
2019-01-16T10:54:32.660Z,27.6
2019-01-16T10:55:22.923Z,27.5
2019-01-16T10:56:12.732Z,27.3
2019-01-16T10:57:02.872Z,27.2
2019-01-16T10:57:53.152Z,27.1
2019-01-16T10:58:43.434Z,26.9
2019-01-16T10:59:33.492Z,26.8
2019-01-16T11:00:23.812Z,26.6
2019-01-16T11:01:12.595Z,26
2019-01-16T11:02:04.205Z,25.7
2019-01-16T11:02:53.142Z,25.8
2019-01-16T11:03:44.092Z,26.3
2019-01-16T11:04:32.719Z,26.6
2019-01-16T11:05:23.067Z,26.6
2019-01-16T11:06:12.527Z,26.8
2019-01-16T11:07:03.162Z,27
2019-01-16T11:07:53.796Z,27.2
2019-01-16T11:08:44.391Z,27.4
2019-01-16T11:09:33.904Z,27.6
2019-01-16T11:11:22.574Z,28
2019-01-16T11:12:04.096Z,28.2
2019-01-16T11:12:54.431Z,28.3
2019-01-16T11:13:43.804Z,28.5
2019-01-16T11:14:34.489Z,28.4
2019-01-16T11:15:24.547Z,28.3
2019-01-16T11:16:14.930Z,28.2
2019-01-16T11:17:05.638Z,28.1
2019-01-16T11:17:54.724Z,27.9
2019-01-16T11:18:44.806Z,27.8
2019-01-16T11:19:33.720Z,27.6
2019-01-16T11:20:24.371Z,27.5
2019-01-16T11:21:19.840Z,27.4